Time;durP1;ratioP1;P1;durP2;ratioP2;P2;SDS_P1;SDS_P2;PMS_P1;PMS_P2;Temp;Humidity;BMP_temperature;BMP_pressure;BME280_temperature;BME280_humidity;BME280_pressure;Samples;Min_cycle;Max_cycle;Signal;HPM_P1;HPM_P2
2022/04/18 00:01:12;;;;;;;4.40;3.10;;;9.90;37.60;;;10.36;34.37;97935.19;5044452;28;20049;-43
2022/04/18 00:03:40;;;;;;;3.67;2.90;;;9.70;38.00;;;10.28;34.18;97937.75;5043882;28;20056;-43
2022/04/18 00:06:08;;;;;;;5.67;3.30;;;9.70;38.20;;;10.23;34.50;97932.03;5043402;28;20046;-43
2022/04/18 00:08:36;;;;;;;4.20;3.17;;;9.70;38.30;;;10.17;34.41;97930.81;5043876;28;20229;-43
2022/04/18 00:11:04;;;;;;;4.10;2.90;;;9.60;38.40;;;10.11;34.97;97920.78;5043831;28;20053;-42
2022/04/18 00:13:31;;;;;;;5.17;3.37;;;9.50;38.80;;;10.05;34.88;97916.91;5043627;28;20336;-42
2022/04/18 00:15:59;;;;;;;4.80;3.77;;;9.40;38.80;;;9.99;35.17;97919.34;5043632;28;20057;-42
2022/04/18 00:18:27;;;;;;;6.80;3.87;;;9.40;39.20;;;9.93;35.19;97919.94;5043521;28;20037;-42
2022/04/18 00:20:55;;;;;;;4.20;3.43;;;9.30;39.30;;;9.86;35.31;97922.34;5043601;28;20332;-42
2022/04/18 00:23:23;;;;;;;6.87;3.33;;;9.20;39.60;;;9.80;35.55;97920.28;5043250;28;20041;-42
2022/04/18 00:25:51;;;;;;;3.97;3.23;;;9.20;39.90;;;9.72;35.57;97918.38;5043272;28;20049;-42
2022/04/18 00:28:19;;;;;;;5.90;3.70;;;9.10;40.20;;;9.69;35.84;97915.19;5043594;28;20053;-43
2022/04/18 00:30:46;;;;;;;3.90;3.33;;;9.00;40.00;;;9.64;35.92;97915.63;5043625;28;20057;-42
2022/04/18 00:33:14;;;;;;;5.00;3.57;;;9.00;40.20;;;9.61;36.08;97922.06;5043770;28;20057;-42
2022/04/18 00:35:42;;;;;;;4.67;3.70;;;9.00;40.30;;;9.59;35.92;97909.91;5042191;28;20059;-42
2022/04/18 00:38:10;;;;;;;4.43;3.30;;;9.00;40.40;;;9.60;36.15;97916.94;5042723;28;20056;-42
2022/04/18 00:40:38;;;;;;;4.07;3.30;;;9.00;40.40;;;9.58;35.94;97914.41;5043205;28;20049;-42
2022/04/18 00:43:07;;;;;;;4.93;3.67;;;9.00;40.00;;;9.57;36.31;97912.72;5043175;28;20046;-43
2022/04/18 00:45:34;;;;;;;4.07;3.67;;;9.00;40.40;;;9.54;36.21;97906.84;5042723;28;20049;-42
2022/04/18 00:48:03;;;;;;;6.13;3.57;;;9.00;40.40;;;9.52;36.17;97906.19;5042578;28;20071;-43
2022/04/18 00:50:34;;;;;;;7.70;5.70;;;9.00;40.60;;;9.49;36.48;97906.50;5042994;28;20049;-42
2022/04/18 00:53:05;;;;;;;6.53;3.73;;;8.90;41.10;;;9.45;36.46;97908.59;5041923;28;20053;-42
2022/04/18 00:55:35;;;;;;;4.00;3.20;;;8.80;41.60;;;9.43;36.62;97903.44;5042453;28;20176;-42
2022/04/18 00:58:04;;;;;;;4.63;3.23;;;8.80;41.40;;;9.40;36.45;97903.75;5041419;28;20053;-43
2022/04/18 01:00:32;;;;;;;5.47;3.20;;;8.80;42.10;;;9.36;36.47;97899.69;5041849;28;20045;-42
2022/04/18 01:03:00;;;;;;;5.43;3.20;;;8.80;41.30;;;9.34;36.81;97896.31;5025660;28;20052;-43
2022/04/18 01:05:28;;;;;;;4.60;3.47;;;8.70;41.60;;;9.28;36.92;97886.28;5058076;28;20049;-42
2022/04/18 01:07:56;;;;;;;4.43;2.97;;;8.70;41.60;;;9.25;36.86;97887.44;5042762;28;20052;-44
2022/04/18 01:10:26;;;;;;;6.13;3.03;;;8.70;41.70;;;9.26;36.79;97890.91;5041859;28;20052;-42
2022/04/18 01:12:55;;;;;;;4.93;3.13;;;8.70;41.60;;;9.25;36.84;97882.13;5058145;28;20049;-42
2022/04/18 01:15:38;;;;;;;4.47;3.05;;;8.70;41.60;;;9.23;36.99;97885.91;5026702;28;20255;-42
2022/04/18 01:18:27;;;;;;;4.67;3.20;;;8.70;41.60;;;9.23;36.94;97881.44;5042654;28;20041;-42
2022/04/18 01:21:09;;;;;;;3.30;2.73;;;8.70;41.40;;;9.22;37.35;97882.41;5041723;28;20242;-42
2022/04/18 01:24:00;;;;;;;;;;;8.70;41.50;;;9.15;37.18;97873.38;5045361;28;20158;-42
2022/04/18 01:29:34;;;;;;;3.80;2.97;;;8.50;41.80;;;9.10;37.21;97869.47;5042276;28;20050;-42
2022/04/18 01:32:03;;;;;;;3.67;3.33;;;8.50;42.00;;;9.07;37.10;97867.94;5040865;28;20049;-42
2022/04/18 01:34:31;;;;;;;6.20;2.90;;;8.50;42.10;;;9.06;37.41;97866.28;5041557;28;20049;-43
2022/04/18 01:36:59;;;;;;;5.00;3.30;;;8.50;42.40;;;9.05;37.29;97864.59;5057601;28;20053;-42
2022/04/18 01:39:27;;;;;;;4.47;3.30;;;8.40;42.20;;;9.02;37.50;97859.59;5041823;28;20049;-42
2022/04/18 01:41:55;;;;;;;5.63;3.63;;;8.50;42.50;;;9.02;37.71;97862.25;5042252;28;20221;-42
2022/04/18 01:44:23;;;;;;;3.03;2.60;;;8.40;42.50;;;9.00;37.73;97861.56;5041671;28;20045;-43
2022/04/18 01:46:51;;;;;;;7.50;2.80;;;8.40;42.70;;;8.97;37.93;97864.50;5039659;28;20348;-42
2022/04/18 01:49:19;;;;;;;4.23;3.50;;;8.40;42.60;;;8.96;37.92;97861.00;5041426;28;20251;-42
2022/04/18 01:51:47;;;;;;;4.70;3.37;;;8.40;42.40;;;8.96;37.79;97870.78;5041544;28;20351;-42
2022/04/18 01:54:15;;;;;;;3.87;2.47;;;8.40;42.70;;;8.91;37.92;97863.25;5041343;28;20057;-42
2022/04/18 01:56:43;;;;;;;5.03;2.87;;;8.30;42.90;;;8.89;37.89;97862.56;5041293;28;20052;-42
2022/04/18 01:59:12;;;;;;;3.50;3.00;;;8.30;43.60;;;8.87;37.95;97864.53;5041257;28;20049;-42
2022/04/18 02:01:41;;;;;;;4.20;3.10;;;8.30;42.90;;;8.84;37.87;97860.34;5041129;28;20049;-42
2022/04/18 02:04:10;;;;;;;6.30;2.70;;;8.30;42.80;;;8.80;37.80;97856.31;5044263;28;20042;-42
2022/04/18 02:06:38;;;;;;;3.97;2.67;;;8.20;42.80;;;8.78;38.19;97857.41;5060553;28;20056;-41
2022/04/18 02:09:06;;;;;;;5.53;3.20;;;8.20;43.10;;;8.76;38.06;97856.72;5028567;28;20063;-43
2022/04/18 02:11:34;;;;;;;5.40;3.47;;;8.20;42.80;;;8.74;38.16;97853.38;5028209;28;20166;-42
2022/04/18 02:14:02;;;;;;;4.83;3.10;;;8.20;43.00;;;8.73;38.24;97839.28;5046062;28;20049;-42
2022/04/18 02:16:30;;;;;;;3.97;2.73;;;8.20;43.00;;;8.74;38.21;97840.13;5061355;28;20049;-42
2022/04/18 02:19:01;;;;;;;4.13;3.33;;;8.20;42.90;;;8.67;38.27;97839.88;5044840;28;20045;-42
2022/04/18 02:21:29;;;;;;;3.93;3.07;;;8.00;43.30;;;8.63;38.62;97839.31;5044617;28;20348;-42
2022/04/18 02:23:57;;;;;;;6.20;2.90;;;8.00;43.60;;;8.59;38.63;97835.28;5044657;28;20356;-42
2022/04/18 02:26:25;;;;;;;4.97;2.90;;;8.00;43.50;;;8.57;38.47;97836.38;5044989;28;20048;-42
2022/04/18 02:29:05;;;;;;;3.90;2.90;;;8.00;43.70;;;8.55;38.61;97830.38;5045061;28;20049;-42
2022/04/18 02:32:47;;;;;;;5.73;4.10;;;8.00;43.80;;;8.50;38.40;97832.66;5044973;28;20343;-42
2022/04/18 02:34:26;;;;;;;6.20;4.07;;;7.90;43.70;;;8.47;38.60;97825.78;5044971;28;20049;-42
2022/04/18 02:36:55;;;;;;;3.73;3.00;;;7.90;43.80;;;8.47;38.67;97831.97;5044285;28;20396;-42
2022/04/18 02:39:28;;;;;;;5.33;3.50;;;7.90;44.00;;;8.44;38.55;97829.56;5061640;28;20046;-42
2022/04/18 02:41:57;;;;;;;3.70;2.90;;;7.80;43.90;;;8.40;38.76;97820.19;5045328;28;20041;-42
2022/04/18 02:44:29;;;;;;;4.53;3.08;;;7.80;44.00;;;8.36;38.83;97826.78;5060938;28;20045;-42
2022/04/18 02:46:57;;;;;;;3.37;2.47;;;7.70;44.30;;;8.31;39.04;97829.00;5044201;28;20252;-43
2022/04/18 02:49:25;;;;;;;4.67;3.23;;;7.60;44.50;;;8.22;38.99;97824.56;5044060;28;20053;-42
2022/04/18 02:51:54;;;;;;;4.37;3.20;;;7.50;45.00;;;8.20;39.24;97827.38;5043765;28;20069;-42
2022/04/18 02:54:22;;;;;;;7.53;3.10;;;7.50;45.00;;;8.10;39.77;97834.47;5045300;28;20258;-42
2022/04/18 02:56:50;;;;;;;4.30;3.87;;;7.30;45.60;;;7.99;39.64;97827.53;5044697;28;20049;-42
2022/04/18 02:59:19;;;;;;;6.30;3.30;;;7.30;46.00;;;7.96;39.94;97816.34;5027682;28;20055;-42
2022/04/18 03:01:46;;;;;;;4.93;3.70;;;7.20;46.20;;;7.94;39.89;97826.28;5044732;28;20049;-42
2022/04/18 03:04:14;;;;;;;7.07;4.30;;;7.20;46.30;;;7.91;39.91;97822.09;5044424;28;20045;-42
2022/04/18 03:06:42;;;;;;;6.00;3.47;;;7.20;46.40;;;7.88;40.21;97817.06;5043871;28;20053;-42
2022/04/18 03:09:10;;;;;;;5.63;3.93;;;7.10;46.30;;;7.85;40.28;97815.53;5044421;28;20056;-43
2022/04/18 03:11:38;;;;;;;4.77;3.83;;;7.10;46.40;;;7.82;39.98;97814.97;5043835;28;20049;-43
2022/04/18 03:14:06;;;;;;;5.77;3.77;;;7.10;46.70;;;7.77;40.42;97822.50;5043192;28;20059;-43
2022/04/18 03:16:40;;;;;;;5.17;3.80;;;7.10;46.90;;;7.72;40.70;97814.97;5043570;28;20053;-42
2022/04/18 03:19:09;;;;;;;7.57;4.60;;;7.00;47.00;;;7.67;40.51;97812.72;5043813;28;20041;-42
2022/04/18 03:21:48;;;;;;;13.43;7.33;;;7.00;47.20;;;7.67;40.50;97809.25;5043339;28;20049;-43
2022/04/18 03:24:16;;;;;;;10.83;5.63;;;7.00;47.20;;;7.68;40.48;97795.03;5043655;28;20055;-43
2022/04/18 03:26:51;;;;;;;6.30;4.40;;;7.00;47.00;;;7.69;40.72;97786.91;5044163;28;20249;-43
2022/04/18 03:29:23;;;;;;;5.87;3.67;;;7.10;46.60;;;7.72;40.40;97792.94;5043757;28;20064;-44
2022/04/18 03:31:50;;;;;;;6.93;3.80;;;7.10;46.70;;;7.73;40.71;97792.78;5044558;28;20366;-43
2022/04/18 03:34:26;;;;;;;7.23;3.70;;;7.10;46.70;;;7.71;40.80;97788.59;5044219;28;20049;-43
2022/04/18 03:39:50;;;;;;;6.73;4.13;;;7.00;46.90;;;7.60;40.95;97803.66;5043171;28;20045;-42
2022/04/18 03:42:29;;;;;;;4.73;3.70;;;6.90;47.70;;;7.53;40.95;97801.72;5042864;28;20049;-42
2022/04/18 03:45:05;;;;;;;7.30;4.63;;;6.80;47.70;;;7.43;41.05;97799.06;5043015;28;20056;-42
2022/04/18 03:47:33;;;;;;;12.05;5.00;;;6.70;47.90;;;7.40;40.65;97794.03;5043132;28;20045;-42
2022/04/18 03:50:02;;;;;;;10.23;6.07;;;6.70;47.60;;;7.37;41.06;97800.44;5043199;28;20348;-42
2022/04/18 03:52:33;;;;;;;8.37;5.77;;;6.70;47.90;;;7.36;40.92;97796.09;5042874;28;20057;-42
2022/04/18 03:55:14;;;;;;;9.30;6.07;;;6.70;48.30;;;7.34;41.87;97787.47;5043002;28;20045;-43
2022/04/18 03:57:41;;;;;;;6.93;4.80;;;6.70;48.30;;;7.34;41.48;97790.09;5043343;28;20063;-42
2022/04/18 04:00:11;;;;;;;6.73;4.80;;;6.70;48.00;;;7.34;41.62;97789.28;5042645;28;20049;-42
2022/04/18 04:02:45;;;;;;;6.03;4.30;;;6.70;48.10;;;7.31;41.67;97790.41;5045316;28;20041;-42
2022/04/18 04:05:19;;;;;;;5.63;4.37;;;6.70;48.00;;;7.30;41.70;97792.19;5059271;28;20050;-42
2022/04/18 04:07:50;;;;;;;6.00;3.97;;;6.70;47.80;;;7.30;41.14;97786.06;5042549;28;20049;-42
2022/04/18 04:10:31;;;;;;;6.43;3.40;;;6.70;47.70;;;7.31;41.09;97785.09;5042744;28;20049;-42
2022/04/18 04:13:02;;;;;;;4.97;3.63;;;6.70;47.80;;;7.30;41.49;97781.59;5026621;28;20057;-42
2022/04/18 04:15:45;;;;;;;5.03;3.00;;;6.70;47.80;;;7.30;40.88;97784.25;5048799;28;20048;-42
2022/04/18 04:18:19;;;;;;;5.82;3.35;;;6.70;47.80;;;7.30;41.54;97791.34;5059385;28;20058;-42
2022/04/18 04:20:47;;;;;;;4.27;3.47;;;6.80;47.80;;;7.29;42.00;97784.41;5042717;28;20045;-42
2022/04/18 04:23:18;;;;;;;4.50;3.93;;;6.70;48.00;;;7.30;41.39;97786.88;5042603;28;20053;-43
2022/04/18 04:26:07;;;;;;;5.77;3.77;;;6.80;48.10;;;7.30;41.36;97786.06;5041641;28;20461;-42
2022/04/18 04:28:54;;;;;;;4.70;3.70;;;6.70;48.30;;;7.25;41.75;97782.97;5058977;28;20365;-42
2022/04/18 04:31:28;;;;;;;4.00;3.60;;;6.60;48.60;;;7.20;41.46;97783.41;5042882;28;20061;-42
2022/04/18 04:33:59;;;;;;;5.17;3.67;;;6.60;48.80;;;7.15;41.52;97785.59;5042567;28;20061;-42
2022/04/18 04:36:29;;;;;;;4.93;3.53;;;6.50;48.70;;;7.10;41.92;97785.19;5025762;28;20053;-42
2022/04/18 04:38:58;;;;;;;4.30;3.47;;;6.50;49.00;;;6.99;41.97;97780.84;5042958;28;20352;-42
2022/04/18 04:41:40;;;;;;;5.63;3.23;;;6.30;49.50;;;6.95;42.50;97790.03;5041853;28;20051;-42
2022/04/18 04:44:08;;;;;;;5.63;3.53;;;6.30;50.00;;;6.93;42.29;97783.19;5058601;28;20055;-43
2022/04/18 04:46:56;;;;;;;7.17;3.73;;;6.30;49.70;;;6.92;42.15;97779.72;5042026;28;20049;-42
2022/04/18 04:49:26;;;;;;;6.73;3.70;;;6.30;49.90;;;6.89;42.46;97780.81;5042355;28;20045;-43
2022/04/18 04:52:14;;;;;;;4.90;3.50;;;6.20;50.20;;;6.87;42.72;97776.63;5042859;28;20053;-42
2022/04/18 04:54:44;;;;;;;3.97;3.23;;;6.30;49.90;;;6.88;42.23;97776.50;5026119;28;20057;-42
2022/04/18 04:57:18;;;;;;;9.03;4.90;;;6.20;49.60;;;6.89;42.82;97764.94;5058434;28;20045;-42
2022/04/18 05:00:17;;;;;;;6.70;3.60;;;6.30;49.70;;;6.92;42.19;97762.97;5041677;28;20049;-43
2022/04/18 05:03:05;;;;;;;4.13;2.83;;;6.40;49.10;;;6.96;42.30;97772.31;5027885;28;20063;-42
2022/04/18 05:05:33;;;;;;;3.77;2.73;;;6.40;48.30;;;7.02;42.29;97758.56;5058375;28;20075;-42
2022/04/18 05:08:02;;;;;;;5.77;2.87;;;6.60;47.40;;;7.09;42.07;97764.97;5041718;28;20049;-42
2022/04/18 05:10:32;;;;;;;4.57;3.20;;;6.70;47.00;;;7.15;41.37;97768.88;5058524;28;20067;-41
2022/04/18 05:13:06;;;;;;;3.67;2.63;;;6.70;46.50;;;7.21;41.39;97766.56;5041147;28;20255;-41
2022/04/18 05:15:35;;;;;;;4.63;2.80;;;6.80;46.30;;;7.28;41.52;97778.25;5057527;28;20071;-41
2022/04/18 05:18:35;;;;;;;4.57;3.30;;;6.90;46.50;;;7.33;41.51;97774.34;5041420;28;20053;-41
2022/04/18 05:21:03;;;;;;;3.77;2.87;;;6.90;46.70;;;7.33;40.99;97772.56;5041524;28;20055;-42
2022/04/18 05:23:31;;;;;;;4.63;3.27;;;6.90;46.70;;;7.34;41.15;97778.69;5040855;28;20247;-41
2022/04/18 05:26:00;;;;;;;4.07;2.97;;;6.90;46.80;;;7.35;41.48;97781.19;5040895;28;20055;-41
2022/04/18 05:28:29;;;;;;;6.63;4.03;;;6.90;47.10;;;7.34;41.49;97774.22;5041611;28;20128;-41
2022/04/18 05:31:03;;;;;;;4.03;3.03;;;6.80;47.20;;;7.30;42.11;97783.41;5058017;28;20053;-41
2022/04/18 05:33:33;;;;;;;3.87;2.70;;;6.70;47.50;;;7.27;41.67;97779.25;5041241;28;20059;-41
2022/04/18 05:36:20;;;;;;;4.40;3.17;;;6.70;47.60;;;7.29;42.03;97785.22;5041669;28;20052;-41
2022/04/18 05:38:48;;;;;;;5.23;3.00;;;6.80;47.60;;;7.28;42.29;97786.19;5057323;28;20053;-41
2022/04/18 05:41:22;;;;;;;5.97;3.60;;;6.80;48.00;;;7.32;41.86;97788.56;5041471;28;20041;-41
2022/04/18 05:43:51;;;;;;;4.60;3.43;;;6.80;47.90;;;7.37;41.75;97781.91;5025660;28;20057;-41
2022/04/18 05:46:26;;;;;;;6.00;3.63;;;6.90;48.00;;;7.42;42.10;97792.06;5039413;28;20057;-41
2022/04/18 05:48:56;;;;;;;4.70;3.10;;;7.00;47.90;;;7.45;42.42;97782.03;5041384;28;20063;-41
2022/04/18 05:51:25;;;;;;;6.10;3.27;;;7.00;47.90;;;7.49;42.51;97791.38;5040804;28;20053;-41
2022/04/18 05:53:53;;;;;;;6.77;3.60;;;7.10;48.20;;;7.53;42.83;97791.13;5041466;28;20075;-41
2022/04/18 05:56:28;;;;;;;6.63;3.90;;;7.10;48.60;;;7.56;42.47;97788.16;5041202;28;20057;-41
2022/04/18 05:59:02;;;;;;;4.75;4.25;;;7.10;49.00;;;7.59;42.64;97791.38;5042642;28;20055;-41
2022/04/18 06:01:30;;;;;;;4.00;3.30;;;7.20;49.00;;;7.63;42.88;97782.19;5041039;28;20044;-41
2022/04/18 06:04:02;;;;;;;4.43;3.53;;;7.30;48.80;;;7.68;42.93;97784.44;5041176;28;20049;-41
2022/04/18 06:06:31;;;;;;;6.27;3.53;;;7.30;49.10;;;7.69;42.84;97784.25;5040770;28;20049;-41
2022/04/18 06:08:59;;;;;;;5.77;3.77;;;7.30;48.80;;;7.73;42.83;97784.00;5041234;28;20051;-41
2022/04/18 06:11:28;;;;;;;6.13;4.10;;;7.40;48.90;;;7.76;43.01;97778.44;5040840;28;20057;-41
2022/04/18 06:14:31;;;;;;;5.03;3.73;;;7.40;48.90;;;7.79;43.36;97786.09;5042581;28;20053;-41
2022/04/18 06:16:59;;;;;;;4.20;3.30;;;7.40;49.20;;;7.83;43.15;97787.47;5040384;28;20060;-41
2022/04/18 06:19:28;;;;;;;4.10;3.70;;;7.40;48.90;;;7.84;42.65;97787.34;5040493;28;20063;-41
2022/04/18 06:21:57;;;;;;;5.33;3.77;;;7.50;48.70;;;7.89;42.83;97784.28;5056810;28;20071;-42
2022/04/18 06:24:25;;;;;;;6.33;3.77;;;7.50;48.70;;;7.92;43.22;97786.63;5040625;28;20060;-42
2022/04/18 06:27:08;;;;;;;4.60;3.78;;;7.60;48.70;;;7.96;42.72;97787.19;5041350;28;20047;-42
2022/04/18 06:29:38;;;;;;;7.53;4.33;;;7.60;49.00;;;8.00;42.87;97789.41;5040850;28;20046;-43
2022/04/18 06:32:08;;;;;;;5.10;3.73;;;7.60;48.90;;;8.04;42.79;97793.44;5040934;28;20049;-41
2022/04/18 06:34:45;;;;;;;5.30;3.53;;;7.70;48.70;;;8.08;43.11;97794.88;5040824;28;20251;-42
2022/04/18 06:37:18;;;;;;;6.33;3.83;;;7.80;48.50;;;8.13;42.83;97796.25;5040193;28;20247;-42
2022/04/18 06:40:07;;;;;;;5.90;3.90;;;7.80;48.80;;;8.17;43.13;97795.00;5050556;28;20067;-42
2022/04/18 06:42:40;;;;;;;6.47;3.70;;;7.80;49.20;;;8.21;43.00;97778.63;5040478;28;20049;-42
2022/04/18 06:45:14;;;;;;;6.63;4.00;;;7.90;49.20;;;8.22;43.38;97785.63;5040499;28;20049;-42
2022/04/18 06:47:42;;;;;;;7.03;5.50;;;7.90;49.10;;;8.25;43.46;97785.31;5055367;28;20049;-42
2022/04/18 06:50:14;;;;;;;5.70;3.70;;;7.90;49.30;;;8.30;43.53;97782.25;5043786;28;20063;-43
2022/04/18 06:53:00;;;;;;;5.87;3.87;;;8.00;49.10;;;8.33;43.42;97781.13;5050430;28;20048;-42
2022/04/18 06:58:34;;;;;;;6.57;4.00;;;8.10;48.80;;;8.45;43.04;97777.34;5048430;28;20060;-43
2022/04/18 07:01:02;;;;;;;4.67;3.13;;;8.20;48.20;;;8.50;42.46;97788.38;5044560;28;20147;-42
2022/04/18 07:03:30;;;;;;;6.13;3.63;;;8.20;47.50;;;8.54;42.37;97789.75;5027990;28;20045;-42
2022/04/18 07:05:58;;;;;;;7.53;3.83;;;8.30;47.20;;;8.59;42.40;97789.34;5060327;28;20064;-42
2022/04/18 07:08:26;;;;;;;4.27;3.47;;;8.40;48.00;;;8.64;42.28;97789.72;5044362;28;20049;-42
2022/04/18 07:11:01;;;;;;;4.30;3.30;;;8.40;47.30;;;8.68;42.53;97788.44;5044371;28;20053;-42
2022/04/18 07:13:29;;;;;;;5.30;3.93;;;8.40;47.20;;;8.72;42.34;97784.50;5044243;28;20267;-42
2022/04/18 07:15:59;;;;;;;4.93;3.57;;;8.50;47.40;;;8.75;42.37;97792.19;5043966;28;20057;-44
2022/04/18 07:18:27;;;;;;;4.40;3.50;;;8.50;47.50;;;8.81;42.52;97785.47;5044278;28;20053;-44
2022/04/18 07:20:55;;;;;;;4.73;3.97;;;8.60;47.40;;;8.85;42.43;97792.16;5043407;28;20053;-46
2022/04/18 07:23:23;;;;;;;5.30;3.93;;;8.60;47.40;;;8.91;42.49;97790.72;5060480;28;20045;-45
2022/04/18 07:25:56;;;;;;;4.47;3.27;;;8.70;47.40;;;8.95;42.39;97789.44;5043051;28;20059;-47
2022/04/18 07:28:33;;;;;;;6.00;3.87;;;8.80;47.20;;;9.01;42.20;97786.19;5028192;28;20053;-46
2022/04/18 07:31:02;;;;;;;6.90;3.90;;;8.80;47.10;;;9.05;42.29;97776.94;5027319;28;20224;-45
2022/04/18 07:33:30;;;;;;;7.37;4.73;;;8.90;47.20;;;9.11;42.42;97783.50;5043711;28;20049;-48
2022/04/18 07:35:59;;;;;;;5.67;4.13;;;8.90;47.20;;;9.16;42.36;97786.53;5042847;28;20049;-46
2022/04/18 07:41:14;;;;;;;5.27;3.83;;;9.10;47.10;;;9.27;42.33;97783.69;5043215;28;20057;-45
2022/04/18 07:43:45;;;;;;;6.20;3.90;;;9.10;46.90;;;9.31;42.03;97782.41;5043845;28;20049;-45
2022/04/18 07:46:17;;;;;;;4.97;3.13;;;9.20;46.70;;;9.34;41.75;97783.91;5058000;28;20049;-45
2022/04/18 07:48:48;;;;;;;5.47;3.73;;;9.30;46.30;;;9.38;41.81;97782.63;5043293;28;20362;-46
2022/04/18 07:51:36;;;;;;;4.87;3.47;;;9.30;46.20;;;9.44;41.89;97789.97;5043585;28;20051;-47
2022/04/18 07:54:29;;;;;;;6.53;4.00;;;9.30;46.00;;;9.55;41.89;97788.94;5032562;28;20052;-49
2022/04/18 07:56:59;;;;;;;6.10;4.10;;;9.40;46.00;;;9.58;41.79;97791.31;5042453;28;20049;-46
2022/04/18 07:59:38;;;;;;;4.80;3.63;;;9.50;46.00;;;9.64;41.88;97791.53;5042868;28;20061;-46
2022/04/18 08:02:08;;;;;;;4.77;3.17;;;9.60;46.10;;;9.71;41.54;97798.91;5043927;28;20041;-45
2022/04/18 08:05:07;;;;;;;5.63;4.27;;;9.60;45.60;;;9.78;41.32;97794.66;5050467;28;20045;-46
2022/04/18 08:07:52;;;;;;;4.47;3.70;;;9.70;45.30;;;9.83;41.43;97793.19;5059284;28;20247;-47
2022/04/18 08:10:20;;;;;;;6.70;4.10;;;9.70;45.30;;;9.89;41.34;97798.88;5059569;28;20075;-48
2022/04/18 08:12:49;;;;;;;3.47;3.00;;;9.80;45.30;;;9.94;41.16;97793.94;5059652;28;20053;-46
2022/04/18 08:15:35;;;;;;;5.27;3.70;;;9.90;45.00;;;9.99;40.92;97795.16;5043624;28;20060;-48
2022/04/18 08:18:08;;;;;;;6.22;3.63;;;9.90;44.80;;;10.06;40.96;97792.69;5042871;28;20259;-45
2022/04/18 08:20:55;;;;;;;4.20;3.33;;;10.00;44.70;;;10.12;40.78;97792.13;5042568;28;20055;-46
2022/04/18 08:23:23;;;;;;;4.80;3.90;;;10.00;44.60;;;10.16;40.96;97792.66;5042217;28;20220;-45
2022/04/18 08:26:11;;;;;;;4.73;3.50;;;10.10;44.60;;;10.23;40.49;97796.34;5048415;28;20047;-45
2022/04/18 08:28:51;;;;;;;5.57;3.60;;;10.20;44.40;;;10.30;40.58;97793.91;5042420;28;20069;-46
2022/04/18 08:31:21;;;;;;;4.97;3.73;;;10.20;44.30;;;10.35;40.39;97796.94;5042448;28;20291;-45
2022/04/18 08:33:58;;;;;;;5.60;3.23;;;10.30;44.40;;;10.40;40.21;97795.50;5042395;28;20068;-45
2022/04/18 08:36:27;;;;;;;5.77;3.83;;;10.40;44.00;;;10.42;40.19;97798.00;5042043;28;20057;-46
2022/04/18 08:38:56;;;;;;;5.33;3.70;;;10.40;43.80;;;10.47;40.13;97795.72;5043375;28;20047;-46
2022/04/18 08:41:38;;;;;;;4.77;3.23;;;10.50;43.80;;;10.51;39.68;97790.91;5046287;28;20377;-45
2022/04/18 08:44:13;;;;;;;5.53;3.83;;;10.50;43.10;;;10.57;40.18;97791.09;5041730;28;20045;-45
2022/04/18 08:46:41;;;;;;;4.80;3.17;;;10.60;43.40;;;10.64;40.25;97796.63;5040654;28;20132;-46
2022/04/18 08:54:56;;;;;;;5.37;3.60;;;10.70;43.60;;;10.81;39.91;97800.22;5045066;28;20378;-46
2022/04/18 08:57:26;;;;;;;5.47;3.37;;;10.80;43.50;;;10.85;40.31;97793.56;5042275;28;20053;-46
2022/04/18 08:59:55;;;;;;;6.00;3.77;;;10.90;43.60;;;10.88;40.04;97795.94;5041665;28;20059;-46
2022/04/18 09:02:27;;;;;;;5.07;3.37;;;10.90;43.20;;;10.92;38.91;97786.63;5009767;28;20033;-46
2022/04/18 09:05:11;;;;;;;3.47;3.00;;;10.90;42.30;;;11.01;39.67;97782.16;5027711;28;20064;-45
2022/04/18 09:07:55;;;;;;;3.77;3.30;;;11.00;42.70;;;11.04;39.52;97790.66;5041518;28;20064;-45
2022/04/18 09:10:26;;;;;;;5.00;3.40;;;11.00;42.10;;;11.10;39.30;97778.53;5041869;28;20049;-46
2022/04/18 09:13:13;;;;;;;5.13;3.60;;;11.10;42.60;;;11.16;38.70;97774.38;5041245;28;20053;-46
2022/04/18 09:15:51;;;;;;;5.33;3.60;;;11.20;41.80;;;11.21;39.38;97770.25;5056997;28;20049;-48
2022/04/18 09:18:23;;;;;;;4.90;3.50;;;11.20;42.40;;;11.25;39.38;97781.41;5041473;28;20064;-47
2022/04/18 09:21:05;;;;;;;5.07;3.95;;;11.20;42.60;;;11.32;39.56;97773.59;5058030;28;20053;-47
2022/04/18 09:23:39;;;;;;;3.85;3.13;;;11.30;42.70;;;11.34;39.41;97769.78;5041106;28;20052;-45
2022/04/18 09:26:16;;;;;;;5.03;3.30;;;11.30;42.70;;;11.39;39.42;97769.28;5040617;28;20068;-47
2022/04/18 09:28:44;;;;;;;4.07;3.67;;;11.40;42.70;;;11.44;39.33;97764.31;5041241;28;20059;-45
2022/04/18 09:31:23;;;;;;;4.33;3.50;;;11.40;42.20;;;11.47;38.73;97763.13;5041061;28;20153;-44
2022/04/18 09:33:56;;;;;;;3.70;3.30;;;11.50;42.00;;;11.53;38.79;97763.31;5057308;28;20049;-44
2022/04/18 09:36:26;;;;;;;5.90;3.78;;;11.50;41.40;;;11.58;38.43;97757.50;5040567;28;20049;-45
2022/04/18 09:38:56;;;;;;;6.60;4.47;;;11.60;41.40;;;11.65;38.54;97758.50;5057907;28;20058;-45
2022/04/18 09:41:32;;;;;;;5.23;3.50;;;11.60;41.50;;;11.68;38.24;97758.16;5045725;28;20059;-46
2022/04/18 09:44:37;;;;;;;4.83;3.40;;;11.70;41.00;;;11.75;38.08;97763.69;5042114;28;20049;-45
2022/04/18 09:47:05;;;;;;;4.63;3.40;;;11.80;40.60;;;11.77;37.71;97754.50;5039345;28;20059;-45
2022/04/18 09:49:41;;;;;;;5.20;3.57;;;11.80;40.50;;;11.86;37.83;97751.84;5041052;28;20053;-44
2022/04/18 09:52:18;;;;;;;5.20;3.80;;;11.90;40.70;;;11.91;37.94;97753.03;5040485;28;20064;-45
2022/04/18 09:54:53;;;;;;;5.25;3.63;;;12.00;40.70;;;11.96;37.91;97742.72;5042292;28;20351;-44
2022/04/18 09:57:29;;;;;;;4.53;3.95;;;12.00;40.60;;;12.01;38.17;97745.69;5042225;28;20053;-45
2022/04/18 09:59:59;;;;;;;5.43;3.42;;;12.10;40.70;;;12.07;37.85;97743.38;5042593;28;20054;-46
2022/04/18 10:02:30;;;;;;;4.80;3.23;;;12.10;40.40;;;12.10;37.82;97751.03;5042443;28;20056;-46
2022/04/18 10:04:59;;;;;;;4.67;3.20;;;12.10;40.70;;;12.15;37.73;97741.50;5042479;28;20045;-45
2022/04/18 10:07:28;;;;;;;4.15;3.15;;;12.20;39.90;;;12.21;36.80;97750.69;5041439;28;20260;-45
2022/04/18 10:09:57;;;;;;;5.97;3.10;;;12.30;39.20;;;12.24;36.81;97738.84;5042329;28;20128;-46
2022/04/18 10:12:25;;;;;;;7.40;3.28;;;12.30;39.40;;;12.30;36.74;97746.16;5040786;28;20347;-45
2022/04/18 10:14:53;;;;;;;5.88;3.15;;;12.40;39.30;;;12.38;36.93;97744.31;5042166;28;20049;-47
2022/04/18 10:17:24;;;;;;;6.68;3.25;;;12.50;39.20;;;12.44;36.58;97737.44;5040387;28;20049;-46
2022/04/18 10:20:24;;;;;;;5.75;3.97;;;12.50;39.20;;;12.45;36.64;97728.44;5042074;28;20045;-46
2022/04/18 10:24:10;;;;;;;3.72;2.92;;;12.60;38.40;;;12.54;36.37;97730.09;5040489;28;20076;-45
2022/04/18 10:27:05;;;;;;;6.18;3.30;;;12.60;37.40;;;12.61;35.24;97722.22;5021338;28;20054;-45
2022/04/18 10:29:42;;;;;;;7.47;3.92;;;12.70;36.90;;;12.66;35.84;97725.22;5024050;28;20056;-46
2022/04/18 10:32:16;;;;;;;5.57;3.33;;;12.70;38.00;;;12.72;35.78;97716.50;5039340;28;20064;-45
2022/04/18 10:34:50;;;;;;;4.05;2.88;;;12.80;37.80;;;12.76;35.67;97725.03;5044783;28;20045;-46
2022/04/18 10:37:25;;;;;;;5.65;2.95;;;12.80;37.40;;;12.81;35.74;97725.31;5045119;28;20045;-47
2022/04/18 10:40:04;;;;;;;4.63;3.33;;;12.90;38.00;;;12.82;34.63;97716.31;5045739;28;20046;-49
2022/04/18 10:42:38;;;;;;;4.00;3.08;;;12.90;37.30;;;12.93;35.47;97707.06;5045477;28;20251;-46
2022/04/18 10:45:21;;;;;;;4.90;3.63;;;13.00;37.60;;;12.95;35.42;97708.56;5045643;28;20052;-48
2022/04/18 10:48:10;;;;;;;5.43;3.15;;;13.10;37.10;;;12.95;35.61;97710.38;5043932;28;20063;-45
2022/04/18 10:50:48;;;;;;;4.00;3.15;;;13.10;37.50;;;13.01;35.29;97707.03;5045314;28;20053;-46
2022/04/18 10:53:26;;;;;;;5.47;2.97;;;13.10;37.30;;;13.05;35.40;97699.50;5044593;28;20244;-46
2022/04/18 10:55:54;;;;;;;7.38;3.40;;;13.10;37.30;;;13.08;35.65;97701.81;5044886;28;20347;-48
2022/04/18 10:58:26;;;;;;;8.13;3.50;;;13.10;37.60;;;13.10;35.36;97702.47;5045280;28;20056;-46
2022/04/18 11:00:59;;;;;;;3.47;2.63;;;13.20;37.40;;;13.16;35.32;97696.41;5045234;28;20053;-45
2022/04/18 11:03:55;;;;;;;4.47;2.67;;;13.30;37.20;;;13.19;35.15;97699.56;5045229;28;20045;-48
2022/04/18 11:06:23;;;;;;;5.35;3.25;;;13.30;36.60;;;13.24;35.12;97699.06;5044589;28;20045;-44
2022/04/18 11:09:01;;;;;;;6.22;3.35;;;13.30;37.10;;;13.25;35.01;97691.88;5045417;28;20060;-47
2022/04/18 11:11:42;;;;;;;6.70;3.15;;;13.30;36.50;;;13.30;34.97;97706.41;5044938;28;20053;-47
2022/04/18 11:14:18;;;;;;;5.07;3.33;;;13.40;36.70;;;13.36;34.60;97691.50;5045064;28;20053;-45